Latest Coastal Weather Observations for Melbourne (Olympic Park)

IDV60701

Issued at 4:35 am EDT Friday 31 October 2014 (issued every 10 minutes, with the page automatically refreshed every 10 minutes)

About coastal observations | Map of coastal stations | Coastal observations for VIC | Marine services | Other Formats
Station Details ID: 086338 Name: MELBOURNE (OLYMPIC PARK) Lat: -37.83 Lon: 144.98 Height: 7.53 m
Data from the previous 72 hours. | See also: Recent months at Melbourne (Olympic Park)
Date/Time
EDT
Temp

°C
Wind Pressure Rain
since 9am
mm
Weather Cloud Vis
km
Sea
Height
m
Swell
Dir
 
Speed
knots
Gust
knots
hPa Trend Height
m
Period
s
Dir
31/04:30am 11.1 NNE 5 6 1011.2 - 0.0 - - - - - - -
31/04:00am 10.8 CALM 0 2 1011.1 - 0.0 - - - - - - -
31/03:30am 10.9 CALM 0 0 1011.4 - 0.0 - - - - - - -
31/03:00am 11.3 CALM 0 0 1011.7 - 0.0 - - - - - - -
31/02:30am 11.6 CALM 0 0 1012.1 - 0.0 - - - - - - -
31/02:00am 11.8 CALM 0 0 1012.4 - 0.0 - - - - - - -
31/01:30am 12.2 CALM 0 2 1013.2 - 0.0 - - - - - - -
31/01:00am 12.3 CALM 0 0 1013.9 - 0.0 - - - - - - -
31/12:30am 12.8 CALM 0 2 1013.8 - 0.0 - - - - - - -
31/12:00am 13.3 SE 0 4 1014.0 - 0.0 - - - - - - -
 
Date/Time
EDT
Temp

°C
Wind Pressure Rain
since 9am
mm
Weather Cloud Vis
km
Sea
Height
m
Swell
Dir
 
Speed
knots
Gust
knots
hPa Trend Height
m
Period
s
Dir
30/11:30pm 13.6 S 3 6 1014.0 - 0.0 - - - - - - -
30/11:00pm 14.0 SSE 5 8 1014.0 - 0.0 - - - - - - -
30/10:30pm 14.3 SSE 4 8 1014.2 - 0.0 - - - - - - -
30/10:00pm 14.5 S 3 7 1013.9 - 0.0 - - - - - - -
30/09:30pm 14.8 SSE 6 13 1013.7 - 0.0 - - - - - - -
30/09:00pm 15.5 SSE 8 13 1013.4 - 0.0 - - - - - - -
30/08:30pm 15.7 SSW 4 7 1013.1 - 0.0 - - - - - - -
30/08:00pm 15.8 SSW 6 10 1013.1 - 0.0 - - - - - - -
30/07:30pm 16.8 SSW 6 8 1012.7 - 0.0 - - - - - - -
30/07:00pm 18.1 SSW 6 11 1012.8 - 0.0 - - - - - - -
30/06:30pm 19.0 SSW 5 9 1012.6 - 0.0 - - - - - - -
30/06:00pm 19.7 SSE 5 10 1012.6 - 0.0 - - - - - - -
30/05:30pm 20.7 S 6 10 1012.5 - 0.0 - - - - - - -
30/05:00pm 20.1 S 6 10 1012.6 - 0.0 - - - - - - -
30/04:30pm 20.2 SSW 6 12 1012.7 - 0.0 - - - - - - -
30/04:00pm 19.0 SSW 7 11 1012.7 - 0.0 - - - - - - -
30/03:30pm 19.6 SSW 8 15 1012.8 - 0.0 - - - - - - -
30/03:00pm 19.3 SSW 7 12 1013.1 - 0.0 - - - - - - -
30/02:30pm 19.2 S 6 10 1013.3 - 0.0 - - - - - - -
30/02:00pm 18.6 S 7 14 1013.8 - 0.0 - - - - - - -
30/01:30pm 18.4 SSW 7 11 1014.0 - 0.0 - - - - - - -
30/01:00pm 18.9 S 5 8 1014.2 - 0.0 - - - - - - -
30/12:30pm 18.2 S 5 9 1014.6 - 0.0 - - - - - - -
30/12:00pm 17.3 SSW 7 11 1014.9 - 0.0 - - - - - - -
30/11:30am 17.1 S 5 6 1015.3 - 0.0 - - - - - - -
30/11:00am 16.4 S 7 10 1015.6 - 0.0 - - - - - - -
30/10:30am 16.7 SW 4 10 1015.9 - 0.0 - - - - - - -
30/10:00am 15.6 SSW 4 8 1016.1 - 0.0 - - - - - - -
30/09:30am 15.6 WSW 4 8 1015.8 - 0.0 - - - - - - -
30/09:00am 15.6 WSW 4 8 1015.9 - 0.0 - - - - - - -
30/08:30am 15.0 WSW 5 9 1015.7 - 0.0 - - - - - - -
30/08:00am 15.0 WSW 4 8 1015.8 - 0.0 - - - - - - -
30/07:30am 14.7 SW 4 8 1015.3 - 0.0 - - - - - - -
30/07:00am 14.5 E 1 4 1015.0 - 0.0 - - - - - - -
30/06:30am 14.5 NE 3 6 1014.4 - 0.0 - - - - - - -
30/06:00am 14.6 SSW 1 5 1014.5 - 0.0 - - - - - - -
30/05:30am 14.5 SSW 1 6 1014.7 - 0.0 - - - - - - -
30/05:00am 14.3 CALM 0 0 1014.6 - 0.0 - - - - - - -
30/04:30am 14.5 CALM 0 4 1014.3 - 0.0 - - - - - - -
30/04:00am 14.4 CALM 0 3 1014.3 - 0.0 - - - - - - -
30/03:30am 14.6 N 1 4 1014.7 - 0.0 - - - - - - -
30/03:00am 14.8 N 1 4 1014.7 - 0.0 - - - - - - -
30/02:30am 14.6 NNE 1 4 1015.0 - 0.0 - - - - - - -
30/02:00am 14.4 CALM 0 0 1015.4 - 0.0 - - - - - - -
30/01:30am 14.3 NNE 1 4 1015.8 - 0.0 - - - - - - -
30/01:00am 13.6 CALM 0 0 1016.1 - 0.0 - - - - - - -
30/12:30am 13.5 CALM 0 0 1016.4 - 0.0 - - - - - - -
30/12:00am 13.6 CALM 0 0 1016.4 - 0.0 - - - - - - -
 
Date/Time
EDT
Temp

°C
Wind Pressure Rain
since 9am
mm
Weather Cloud Vis
km
Sea
Height
m
Swell
Dir
 
Speed
knots
Gust
knots
hPa Trend Height
m
Period
s
Dir
29/11:30pm 13.6 CALM 0 0 1016.4 - 0.0 - - - - - - -
29/11:00pm 14.3 SE 2 6 1016.4 - 0.0 - - - - - - -
29/10:30pm 14.7 SE 3 6 1016.5 - 0.0 - - - - - - -
29/10:00pm 15.3 SSE 4 7 1016.5 - 0.0 - - - - - - -
29/09:30pm 15.8 S 3 6 1016.1 - 0.0 - - - - - - -
29/09:00pm 16.1 S 3 7 1015.9 - 0.0 - - - - - - -
29/08:30pm 16.3 S 5 10 1015.7 - 0.0 - - - - - - -
29/08:00pm 16.6 S 7 12 1015.3 - 0.0 - - - - - - -
29/07:30pm 17.0 S 6 14 1014.9 - 0.0 - - - - - - -
29/07:00pm 17.6 S 7 13 1014.6 - 0.0 - - - - - - -
29/06:30pm 18.4 SSW 7 11 1014.3 - 0.0 - - - - - - -
29/06:00pm 21.1 S 5 8 1014.0 - 0.0 - - - - - - -
29/05:30pm 21.0 S 5 9 1014.1 - 0.0 - - - - - - -
29/05:00pm 20.3 SSW 7 10 1014.2 - 0.0 - - - - - - -
29/04:30pm 21.2 SSW 5 8 1014.2 - 0.0 - - - - - - -
29/04:00pm 21.1 S 5 8 1014.5 - 0.0 - - - - - - -
29/03:30pm 20.6 SSW 6 9 1014.8 - 0.0 - - - - - - -
29/03:00pm 20.8 SW 4 7 1015.3 - 0.0 - - - - - - -
29/02:30pm 19.9 SW 4 7 1015.9 - 0.0 - - - - - - -
29/02:00pm 19.0 WNW 3 7 1016.5 - 0.0 - - - - - - -
29/01:30pm 18.2 SW 5 9 1017.0 - 0.0 - - - - - - -
29/01:00pm 17.6 NNW 8 13 1017.4 - 0.0 - - - - - - -
29/12:30pm 17.4 WSW 5 8 1017.7 - 0.0 - - - - - - -
29/12:00pm 16.3 W 5 10 1018.3 - 0.0 - - - - - - -
29/11:30am 15.6 WNW 6 11 1018.5 - 0.0 - - - - - - -
29/11:00am 15.0 NNW 6 9 1018.8 - 0.0 - - - - - - -
29/10:30am 14.6 NW 6 11 1019.0 - 0.0 - - - - - - -
29/10:00am 14.1 NW 5 9 1019.2 - 0.0 - - - - - - -
29/09:30am 13.9 W 5 8 1019.2 - 0.0 - - - - - - -
29/09:00am 13.7 WNW 4 8 1019.0 - 0.4 - - - - - - -
29/08:30am 13.3 NW 3 7 1019.0 - 0.4 - - - - - - -
29/08:00am 12.9 W 3 7 1018.8 - 0.4 - - - - - - -
29/07:30am 12.2 NNW 5 7 1018.6 - 0.4 - - - - - - -
29/07:00am 12.0 NNW 5 8 1018.6 - 0.4 - - - - - - -
29/06:30am 11.6 NNW 5 8 1018.3 - 0.4 - - - - - - -
29/06:00am 11.2 WNW 2 5 1017.8 - 0.4 - - - - - - -
29/05:30am 10.7 WNW 1 4 1017.6 - 0.4 - - - - - - -
29/05:00am 11.3 W 3 6 1017.4 - 0.4 - - - - - - -
29/04:30am 11.1 WNW 2 5 1017.4 - 0.4 - - - - - - -
29/04:00am 11.6 NW 4 7 1017.2 - 0.4 - - - - - - -
29/03:30am 12.2 WNW 3 7 1017.2 - 0.4 - - - - - - -
29/03:00am 12.4 W 5 10 1017.2 - 0.4 - - - - - - -
29/02:30am 12.5 WSW 5 12 1017.1 - 0.4 - - - - - - -
29/02:00am 13.0 W 5 11 1017.1 - 0.4 - - - - - - -
29/01:30am 13.1 W 4 8 1017.4 - 0.4 - - - - - - -
29/01:00am 13.1 W 3 8 1017.7 - 0.4 - - - - - - -
29/12:30am 13.2 WSW 3 7 1017.7 - 0.4 - - - - - - -
29/12:00am 13.4 SW 3 11 1017.7 - 0.4 - - - - - - -
 
Date/Time
EDT
Temp

°C
Wind Pressure Rain
since 9am
mm
Weather Cloud Vis
km
Sea
Height
m
Swell
Dir
 
Speed
knots
Gust
knots
hPa Trend Height
m
Period
s
Dir
28/11:30pm 13.3 W 5 11 1017.5 - 0.4 - - - - - - -
28/11:00pm 13.5 W 6 10 1017.7 - 0.4 - - - - - - -
28/10:30pm 13.8 SW 4 10 1017.5 - 0.4 - - - - - - -
28/10:00pm 13.9 SW 6 13 1017.5 - 0.4 - - - - - - -
28/09:30pm 14.2 SW 7 15 1017.2 - 0.4 - - - - - - -
28/09:00pm 14.9 SW 6 12 1016.8 - 0.4 - - - - - - -
28/08:30pm 15.6 SW 6 11 1016.2 - 0.4 - - - - - - -
28/08:00pm 15.7 SW 5 11 1015.8 - 0.4 - - - - - - -
28/07:30pm 16.1 SSW 5 11 1015.2 - 0.4 - - - - - - -
28/07:00pm 16.7 SW 7 15 1014.6 - 0.4 - - - - - - -
28/06:30pm 17.0 SSW 8 14 1014.2 - 0.4 - - - - - - -
28/06:00pm 17.8 WSW 7 14 1013.8 - 0.4 - - - - - - -
28/05:30pm 17.8 SSW 7 16 1013.3 - 0.4 - - - - - - -
28/05:00pm 17.6 SSW 6 14 1013.1 - 0.4 - - - - - - -
28/04:30pm 18.1 SSW 10 19 1013.0 - 0.4 - - - - - - -
28/04:00pm 19.1 WSW 8 15 1012.9 - 0.4 - - - - - - -
28/03:30pm 18.8 W 7 14 1012.8 - 0.4 - - - - - - -
28/03:00pm 18.8 W 9 16 1012.8 - 0.4 - - - - - - -
28/02:30pm 18.7 W 8 17 1012.4 - 0.4 - - - - - - -
28/02:00pm 18.4 W 9 21 1012.4 - 0.4 - - - - - - -
28/01:30pm 18.6 WNW 7 15 1012.3 - 0.4 - - - - - - -
28/01:00pm 18.1 WNW 8 14 1012.1 - 0.4 - - - - - - -
28/12:30pm 16.7 W 7 15 1012.2 - 0.4 - - - - - - -
28/12:00pm 15.6 WNW 9 18 1012.2 - 0.4 Recent precip. - - - - - -
28/11:30am 15.9 W 7 12 1012.3 - 0.4 - - - - - - -
28/11:00am 14.7 WNW 6 12 1012.3 - 0.0 - - - - - - -
28/10:30am 14.8 NW 7 11 1012.0 - 0.0 - - - - - - -
28/10:00am 15.1 WNW 6 13 1011.9 - 0.0 - - - - - - -
28/09:30am 15.0 NW 9 18 1011.6 - 0.0 - - - - - - -
28/09:00am 14.8 NW 7 14 1011.5 - 3.6 - - - - - - -
28/08:30am 13.4 N 6 10 1011.4 - 3.6 - - - - - - -
28/08:00am 13.0 N 7 11 1011.1 - 3.6 - - - - - - -
28/07:30am 12.8 N 8 13 1011.0 - 3.6 - - - - - - -
28/07:00am 12.9 N 6 10 1011.0 - 3.6 - - - - - - -
28/06:30am 13.1 NNW 7 12 1010.5 - 3.6 - - - - - - -
28/06:00am 12.7 NNW 6 12 1010.3 - 3.6 - - - - - - -
28/05:30am 12.2 N 7 10 1010.1 - 3.6 - - - - - - -
28/05:00am 12.1 N 7 10 1010.1 - 3.6 - - - - - - -

Other Formats:

Comma delimited format used in spreadsheet applications
http://www.bom.gov.au/fwo/IDV60701/IDV60701.95936.axf

JavaScript Object Notation format (JSON) in row-major order
http://www.bom.gov.au/fwo/IDV60701/IDV60701.95936.json